Terminal Aerodrome Forecast
Issued by NWS Sterling, VA

Current Version | Previous Version | Text Only | Print | Product List | Glossary On
Versions: 1 2 3 4 5 6 7 8 9 10 11 12 13 14 15 16 17 18 19 20 21 22 23 24 25 26 27 28 29
000
FTUS41 KLWX 090200 AAA
TAFIAD
TAF AMD
KIAD 090201Z 0902/1006 20007KT P6SM FEW040 BKN100 BKN200
     FM090400 26007KT P6SM SCT050 BKN090
     FM090600 VRB03KT P6SM SCT060 BKN250
     FM091500 25009KT P6SM BKN060=

USA.gov is the U.S. government's official web portal to all federal, state and local government web resources and services.